Time;durP1;ratioP1;P1;durP2;ratioP2;P2;SDS_P1;SDS_P2;PMS_P1;PMS_P2;Temp;Humidity;BMP_temperature;BMP_pressure;BME280_temperature;BME280_humidity;BME280_pressure;Samples;Min_cycle;Max_cycle;Signal;HPM_P1;HPM_P2
2023/05/29 00:01:18;;;;;;;5.40;2.47;;;12.90;99.90;;;-144.05;51.79;56819.09;5077971;28;20017;-85
2023/05/29 00:03:45;;;;;;;8.75;2.95;;;12.90;99.90;;;-144.05;52.07;56812.72;5078187;28;20020;-82
2023/05/29 00:06:10;;;;;;;6.03;2.67;;;12.80;99.90;;;-144.05;52.34;56819.09;5077102;28;20393;-82
2023/05/29 00:08:37;;;;;;;7.22;2.85;;;12.80;99.90;;;-144.05;52.58;56819.09;5077146;28;20028;-83
2023/05/29 00:11:03;;;;;;;7.20;2.90;;;12.70;99.90;;;-144.05;52.52;56821.22;5079014;28;20029;-83
2023/05/29 00:13:29;;;;;;;8.18;3.50;;;12.70;99.90;;;-144.05;52.91;56823.34;5079436;28;20020;-83
2023/05/29 00:15:55;;;;;;;5.32;3.10;;;12.70;99.90;;;-144.05;53.38;56825.47;5077994;28;20078;-85
2023/05/29 00:18:21;;;;;;;7.00;3.00;;;12.70;99.90;;;-144.05;53.35;56823.34;5079017;28;20433;-86
2023/05/29 00:20:47;;;;;;;7.00;3.00;;;12.70;99.90;;;-144.05;53.42;56814.84;5078897;28;20033;-84
2023/05/29 00:23:13;;;;;;;5.38;2.88;;;12.60;99.90;;;-144.05;53.91;56853.09;5077755;28;20028;-81
2023/05/29 00:25:42;;;;;;;8.25;3.33;;;12.50;99.90;;;-144.05;54.07;56853.09;5079131;28;20029;-82
2023/05/29 00:28:11;;;;;;;5.55;3.30;;;12.50;99.90;;;-144.05;54.41;56825.47;5078304;28;20024;-85
2023/05/29 00:30:38;;;;;;;8.48;3.65;;;12.50;99.90;;;-144.05;54.62;56806.34;5081461;28;20093;-83
2023/05/29 00:33:04;;;;;;;7.60;3.42;;;12.40;99.90;;;-144.05;55.04;56814.84;5080691;28;20054;-83
2023/05/29 00:35:30;;;;;;;6.20;3.63;;;12.40;99.90;;;-144.05;55.30;56827.59;5079472;28;20042;-85
2023/05/29 00:37:57;;;;;;;6.47;3.17;;;12.30;99.90;;;-144.05;55.52;56814.84;5079804;28;20033;-82
2023/05/29 00:40:24;;;;;;;8.73;3.65;;;12.30;99.90;;;-144.05;55.47;56838.22;5079509;28;20059;-81
2023/05/29 00:42:50;;;;;;;7.32;3.28;;;12.30;99.90;;;-144.05;56.55;56823.34;5079330;28;20032;-83
2023/05/29 00:45:16;;;;;;;9.85;3.65;;;12.30;99.90;;;-144.05;56.37;56821.22;5079156;28;20415;-82
2023/05/29 00:47:42;;;;;;;6.28;3.70;;;12.30;99.90;;;-144.05;56.69;56819.09;5079205;28;20025;-82
2023/05/29 00:50:13;;;;;;;6.72;3.00;;;12.20;99.90;;;-144.05;57.10;56838.22;5080038;28;20052;-85
2023/05/29 00:52:43;;;;;;;5.90;3.60;;;12.30;99.90;;;-144.05;57.61;56831.84;5065331;28;20052;-85
2023/05/29 00:55:10;;;;;;;9.98;3.30;;;12.20;99.90;;;-144.05;57.91;56836.09;5080802;28;20027;-82
2023/05/29 00:57:39;;;;;;;8.98;3.38;;;12.20;99.90;;;-144.05;58.43;56812.72;5079756;28;20032;-86
2023/05/29 01:00:13;;;;;;;9.45;3.53;;;12.20;99.90;;;-144.05;58.58;56823.34;5082950;28;20032;-84
2023/05/29 01:02:44;;;;;;;11.27;3.83;;;12.10;99.90;;;-144.05;59.13;56821.22;5064253;28;20032;-85
2023/05/29 01:05:12;;;;;;;9.93;3.03;;;12.10;99.90;;;-144.05;59.15;56823.34;5080820;28;20028;-83
2023/05/29 01:07:38;;;;;;;10.15;3.60;;;12.00;99.90;;;-144.05;59.23;56808.47;5082474;28;20024;-80
2023/05/29 01:10:07;;;;;;;12.93;3.92;;;12.00;99.90;;;-144.05;59.31;56799.97;5082564;28;20056;-84
2023/05/29 01:13:08;;;;;;;9.82;3.10;;;12.00;99.90;;;-144.05;59.78;56827.59;5080586;28;20024;-84
2023/05/29 01:15:58;;;;;;;12.40;3.65;;;11.90;99.90;;;-144.05;59.70;56833.97;5081928;28;20473;-83
2023/05/29 01:19:03;;;;;;;8.50;3.50;;;11.80;99.90;;;-144.05;59.95;56825.47;5083526;28;20044;-85
2023/05/29 01:22:13;;;;;;;7.95;3.00;;;11.70;99.90;;;-144.05;60.60;56840.34;5091038;28;20040;-82
2023/05/29 01:25:05;;;;;;;11.90;3.30;;;11.70;99.90;;;-144.05;60.35;56825.47;5098172;28;20028;-79
2023/05/29 01:27:32;;;;;;;12.52;4.00;;;11.60;99.90;;;-144.05;60.89;56814.84;5095994;28;20084;-79
2023/05/29 01:30:03;;;;;;;10.82;3.75;;;11.50;99.90;;;-144.05;61.99;56808.47;5096856;28;20020;-85
2023/05/29 01:32:30;;;;;;;10.05;3.88;;;11.50;99.90;;;-144.05;61.47;56831.84;5096293;28;20055;-82
2023/05/29 01:34:56;;;;;;;7.53;3.63;;;11.50;99.90;;;-144.05;61.51;56823.34;5095955;28;20147;-82
2023/05/29 01:37:21;;;;;;;15.13;3.67;;;11.50;99.90;;;-144.05;61.26;56821.22;5077674;28;20067;-84
2023/05/29 01:39:48;;;;;;;14.52;3.90;;;11.40;99.90;;;-144.05;61.13;56806.34;5058889;28;20052;-84
2023/05/29 01:42:14;;;;;;;14.70;3.72;;;11.30;99.90;;;-144.05;61.35;56833.97;5073447;28;20036;-83
2023/05/29 01:44:41;;;;;;;10.75;2.92;;;11.30;99.90;;;-144.05;61.16;56829.72;5057341;28;20036;-84
2023/05/29 01:47:08;;;;;;;9.85;3.05;;;11.30;99.90;;;-144.05;60.99;56804.22;5076159;28;20037;-82
2023/05/29 01:49:37;;;;;;;17.55;4.03;;;11.20;99.90;;;-144.05;61.00;56840.34;5074996;28;20451;-81
2023/05/29 01:52:04;;;;;;;10.85;2.75;;;11.20;99.90;;;-144.05;60.84;56844.59;5077061;28;20028;-81
2023/05/29 01:54:30;;;;;;;16.25;3.67;;;11.10;99.90;;;-144.05;60.74;56821.22;5075373;28;20076;-82
2023/05/29 01:56:56;;;;;;;9.88;3.28;;;11.00;99.90;;;-144.05;60.87;56814.84;5076538;28;20028;-82
2023/05/29 01:59:22;;;;;;;13.68;3.10;;;10.90;99.90;;;-144.05;60.45;56814.84;5075901;28;20033;-81
2023/05/29 02:01:48;;;;;;;11.10;3.53;;;10.90;99.90;;;-144.05;60.97;56831.84;5075703;28;20025;-84
2023/05/29 02:04:14;;;;;;;15.63;3.80;;;10.90;99.90;;;-144.05;60.86;56833.97;5074498;28;20029;-83
2023/05/29 02:06:41;;;;;;;13.93;2.78;;;10.80;99.90;;;-144.05;61.09;56829.72;5057541;28;20074;-81
2023/05/29 02:09:07;;;;;;;19.35;4.18;;;10.80;99.90;;;-144.05;61.46;56812.72;5075191;28;20107;-82
2023/05/29 02:11:32;;;;;;;18.17;3.65;;;10.70;99.90;;;-144.05;61.53;56836.09;5074092;28;20044;-85
2023/05/29 02:14:01;;;;;;;14.48;3.70;;;10.70;99.90;;;-144.05;61.50;56819.09;5074639;28;20111;-81
2023/05/29 02:16:27;;;;;;;18.50;3.35;;;10.70;99.90;;;-144.05;61.86;56833.97;5075119;28;20108;-83
2023/05/29 02:18:53;;;;;;;16.05;3.58;;;10.60;99.90;;;-144.05;61.55;56810.59;5075166;28;20098;-82
2023/05/29 02:21:19;;;;;;;13.82;3.17;;;10.60;99.90;;;-144.05;61.46;56831.84;5074009;28;20090;-82
2023/05/29 02:23:46;;;;;;;15.25;3.35;;;10.60;99.90;;;-144.05;61.73;56831.84;5057398;28;20029;-82
2023/05/29 02:26:15;;;;;;;14.38;3.63;;;10.60;99.90;;;-144.05;61.55;56814.84;5074801;28;20409;-83
2023/05/29 02:28:41;;;;;;;11.80;3.33;;;10.50;99.90;;;-144.05;61.85;56823.34;5074472;28;20028;-84
2023/05/29 02:31:06;;;;;;;12.13;3.65;;;10.50;99.90;;;-144.05;61.74;56814.84;5074356;28;20024;-81
2023/05/29 02:33:32;;;;;;;17.73;2.85;;;10.50;99.90;;;-144.05;62.07;56819.09;5056636;28;20024;-80
2023/05/29 02:35:58;;;;;;;14.63;3.55;;;10.50;99.90;;;-144.05;62.11;56848.84;5074508;28;20025;-82
2023/05/29 02:38:24;;;;;;;12.88;3.58;;;10.50;99.90;;;-144.05;61.97;56819.09;5075162;28;20074;-84
2023/05/29 02:40:49;;;;;;;12.40;2.60;;;10.40;99.90;;;-144.05;62.86;56829.72;5056748;28;20417;-82
2023/05/29 02:43:15;;;;;;;22.77;4.40;;;10.40;99.90;;;-144.05;62.97;56836.09;5074220;28;20036;-80
2023/05/29 02:45:41;;;;;;;14.10;3.13;;;10.40;99.90;;;-144.05;63.41;56827.59;5073131;28;20067;-81
2023/05/29 02:48:07;;;;;;;11.23;3.28;;;10.40;99.90;;;-144.05;62.73;56823.34;5072958;28;20105;-82
2023/05/29 02:50:33;;;;;;;13.13;4.10;;;10.30;99.90;;;-144.05;62.99;56825.47;5074655;28;20543;-84
2023/05/29 02:52:59;;;;;;;14.13;3.17;;;10.40;99.90;;;-144.05;63.04;56833.97;5072115;28;20067;-81
2023/05/29 02:55:25;;;;;;;9.00;2.75;;;10.20;99.90;;;-144.05;63.84;56819.09;5072920;28;20027;-80
2023/05/29 02:57:54;;;;;;;20.23;4.00;;;10.20;99.90;;;-144.05;63.48;56833.97;5073884;28;20032;-83
2023/05/29 03:00:20;;;;;;;19.58;3.40;;;10.20;99.90;;;-144.05;63.88;56831.84;5074611;28;20032;-82
2023/05/29 03:02:46;;;;;;;16.45;4.25;;;10.20;99.90;;;-144.05;63.47;56823.34;5074462;28;20440;-82
2023/05/29 03:05:12;;;;;;;18.15;3.83;;;10.10;99.90;;;-144.05;64.26;56838.22;5074090;28;20543;-82
2023/05/29 03:07:38;;;;;;;15.30;4.18;;;10.00;99.90;;;-144.05;64.26;56838.22;5074604;28;20024;-82
2023/05/29 03:10:04;;;;;;;18.20;3.63;;;10.10;99.90;;;-144.05;64.29;56829.72;5074494;28;20025;-81
2023/05/29 03:12:30;;;;;;;18.58;3.83;;;9.90;99.90;;;-144.05;64.43;56836.09;5072134;28;20103;-82
2023/05/29 03:14:57;;;;;;;10.70;3.00;;;9.90;99.90;;;-144.05;64.65;56836.09;5056970;28;20106;-82
2023/05/29 03:17:23;;;;;;;11.90;4.10;;;9.90;99.90;;;-144.05;65.46;56819.09;5093790;28;20013;-84
2023/05/29 03:19:48;;;;;;;14.85;3.40;;;9.90;99.90;;;-144.05;66.37;56806.34;5060239;28;20138;-84
2023/05/29 03:22:14;;;;;;;15.65;3.50;;;9.90;99.90;;;-144.05;65.57;56829.72;5074989;28;20024;-84
2023/05/29 03:24:40;;;;;;;17.73;4.40;;;9.90;99.90;;;-144.05;65.92;56844.59;5073393;28;20052;-81
2023/05/29 03:27:06;;;;;;;18.13;4.18;;;9.90;99.90;;;-144.05;66.05;56827.59;5073997;28;20037;-83
2023/05/29 03:29:32;;;;;;;19.90;4.07;;;9.90;99.90;;;-144.05;65.75;56842.47;5074282;28;20035;-83
2023/05/29 03:31:58;;;;;;;15.50;4.22;;;10.00;99.90;;;-144.05;65.55;56823.34;5073096;28;20020;-81
2023/05/29 03:34:25;;;;;;;16.08;3.50;;;9.90;99.90;;;-144.05;65.67;56859.47;5072886;28;20316;-81
2023/05/29 03:36:50;;;;;;;17.40;3.33;;;9.80;99.90;;;-144.05;65.79;56840.34;5073175;28;20470;-84
2023/05/29 03:39:16;;;;;;;15.77;3.30;;;9.80;99.90;;;-144.05;66.16;56844.59;5075121;28;20025;-83
2023/05/29 03:41:42;;;;;;;16.45;3.22;;;9.80;99.90;;;-144.05;66.16;56814.84;5073010;28;20032;-80
2023/05/29 03:44:09;;;;;;;19.50;3.67;;;9.90;99.90;;;-144.05;66.01;56838.22;5074663;28;20045;-83
2023/05/29 03:46:35;;;;;;;16.98;3.53;;;9.80;99.90;;;-144.05;65.95;56842.47;5074014;28;20075;-81
2023/05/29 03:49:01;;;;;;;13.80;3.95;;;9.80;99.90;;;-144.05;66.12;56844.59;5072267;28;20596;-84
2023/05/29 03:51:27;;;;;;;18.65;3.58;;;9.80;99.90;;;-144.05;66.13;56836.09;5073473;28;20031;-84
2023/05/29 03:53:53;;;;;;;18.65;3.63;;;9.80;99.90;;;-144.05;66.00;56848.84;5073111;28;20063;-85
2023/05/29 03:56:19;;;;;;;13.75;3.70;;;9.80;99.90;;;-144.05;66.38;56831.84;5098445;22;20057;-78
2023/05/29 03:58:45;;;;;;;18.58;3.10;;;9.80;99.90;;;-144.05;66.09;56844.59;5073648;28;20032;-79
2023/05/29 04:01:10;;;;;;;17.58;4.00;;;9.90;99.90;;;-144.05;66.31;56821.22;5092035;28;20024;-77
2023/05/29 04:03:37;;;;;;;14.35;4.30;;;9.80;99.90;;;-144.05;66.31;56829.72;5091192;28;20034;-79
2023/05/29 04:06:04;;;;;;;15.70;4.13;;;9.90;99.90;;;-144.05;66.14;56831.84;5090648;28;20149;-79
2023/05/29 04:08:30;;;;;;;13.52;3.50;;;9.90;99.90;;;-144.05;65.58;56836.09;5071197;28;20024;-78
2023/05/29 04:10:56;;;;;;;16.60;3.15;;;9.90;99.90;;;-144.05;65.45;56827.59;5053248;28;20025;-79
2023/05/29 04:13:22;;;;;;;13.90;3.88;;;9.90;99.90;;;-144.05;65.40;56831.84;5071452;28;20047;-79
2023/05/29 04:15:48;;;;;;;19.00;3.75;;;9.90;99.90;;;-144.05;65.51;56836.09;5071468;28;20034;-79
2023/05/29 04:18:13;;;;;;;12.13;3.60;;;9.90;99.90;;;-144.05;65.50;56831.84;5069975;28;20056;-78
2023/05/29 04:20:39;;;;;;;22.48;3.65;;;10.00;99.90;;;-144.05;65.88;56810.59;5070120;28;20060;-79
2023/05/29 04:23:05;;;;;;;11.45;3.45;;;10.00;99.90;;;-144.05;65.60;56797.88;5071259;28;20060;-80
2023/05/29 04:25:32;;;;;;;13.90;3.45;;;9.90;99.90;;;-144.05;65.47;56827.59;5070423;28;20025;-80
2023/05/29 04:28:01;;;;;;;20.33;3.97;;;10.00;99.90;;;-144.05;65.32;56838.22;5075110;28;20108;-80
2023/05/29 04:30:28;;;;;;;15.10;3.72;;;10.00;99.90;;;-144.05;65.17;56816.97;5060389;28;20096;-80
2023/05/29 04:32:54;;;;;;;18.15;4.68;;;10.10;99.90;;;-144.05;64.81;56819.09;5072367;28;20033;-82
2023/05/29 04:35:21;;;;;;;15.45;3.60;;;10.10;99.90;;;-144.05;64.65;56806.34;5072578;28;20123;-81
2023/05/29 04:37:47;;;;;;;19.10;4.00;;;10.20;99.90;;;-144.05;64.33;56819.09;5078629;28;20557;-81
2023/05/29 04:40:17;;;;;;;19.42;3.97;;;10.20;99.90;;;-144.05;63.92;56812.72;5083105;28;20036;-81
2023/05/29 04:42:45;;;;;;;13.65;3.58;;;10.20;99.90;;;-144.05;64.01;56827.59;5081888;28;20024;-81
2023/05/29 04:45:11;;;;;;;16.85;3.25;;;10.30;99.90;;;-144.05;63.49;56823.34;5074844;28;20040;-81
2023/05/29 04:47:42;;;;;;;17.45;3.95;;;10.40;99.90;;;-144.05;63.37;56814.84;5071273;28;20028;-79
2023/05/29 04:50:13;;;;;;;12.73;3.50;;;10.50;99.90;;;-144.05;62.97;56827.59;5071198;28;20554;-78
2023/05/29 04:52:39;;;;;;;17.00;3.42;;;10.50;99.90;;;-144.05;62.77;56825.47;5069843;28;20050;-80
2023/05/29 04:55:06;;;;;;;16.38;2.97;;;10.60;99.90;;;-144.05;62.30;56833.97;5071501;28;20474;-79
2023/05/29 04:57:32;;;;;;;22.33;3.47;;;10.70;99.90;;;-144.05;61.87;56833.97;5070853;28;20105;-78
2023/05/29 04:59:58;;;;;;;12.55;2.90;;;10.80;99.90;;;-144.05;61.42;56827.59;5053057;28;20452;-80
2023/05/29 05:02:24;;;;;;;17.50;3.35;;;10.90;99.90;;;-144.05;60.70;56840.34;5053217;28;20025;-79
2023/05/29 05:04:50;;;;;;;17.60;3.42;;;11.00;99.90;;;-144.05;60.43;56831.84;5052965;28;20028;-78
2023/05/29 05:07:16;;;;;;;14.43;3.00;;;11.00;99.90;;;-144.05;60.29;56838.22;5071365;28;20086;-80
2023/05/29 05:09:42;;;;;;;15.68;3.83;;;11.00;99.90;;;-144.05;59.83;56812.72;5070876;28;20028;-79
2023/05/29 05:12:08;;;;;;;19.02;3.20;;;11.20;99.90;;;-144.05;58.73;56808.47;5052942;28;20081;-79
2023/05/29 05:14:35;;;;;;;13.52;3.70;;;11.40;99.90;;;-144.05;58.51;56802.09;5069777;28;20124;-79
2023/05/29 05:17:00;;;;;;;14.50;3.70;;;11.40;99.90;;;-144.05;58.34;56829.72;5074011;28;20097;-78
2023/05/29 05:19:26;;;;;;;14.68;3.78;;;11.50;99.90;;;-144.05;57.83;56823.34;5074393;28;20032;-80
2023/05/29 05:21:52;;;;;;;14.05;3.13;;;11.50;99.90;;;-144.05;57.53;56819.09;5075317;28;20535;-82
2023/05/29 05:24:18;;;;;;;16.73;3.33;;;11.60;99.90;;;-144.05;56.79;56829.72;5058812;28;20060;-83
2023/05/29 05:26:43;;;;;;;13.32;3.80;;;11.80;99.90;;;-144.05;57.20;56816.97;5058503;28;20050;-82
2023/05/29 05:29:09;;;;;;;17.17;3.88;;;11.70;99.90;;;-144.05;56.20;56829.72;5075936;28;20051;-82
2023/05/29 05:31:35;;;;;;;14.68;3.40;;;11.80;99.90;;;-144.05;55.42;56799.97;5075081;28;20446;-83
2023/05/29 05:34:01;;;;;;;15.95;3.60;;;12.10;99.90;;;-144.05;54.59;56806.34;5075984;28;20111;-82
2023/05/29 05:36:27;;;;;;;16.98;3.40;;;12.20;99.90;;;-144.05;54.71;56808.47;5074361;28;20063;-82
2023/05/29 05:38:53;;;;;;;10.82;3.38;;;12.20;99.90;;;-144.05;54.24;56831.84;5075764;28;20109;-80
2023/05/29 05:41:18;;;;;;;18.08;3.28;;;12.30;99.90;;;-144.05;53.69;56816.97;5075552;28;20477;-82
2023/05/29 05:43:44;;;;;;;14.43;3.10;;;12.50;99.90;;;-144.05;52.86;56808.47;5075960;28;20401;-82
2023/05/29 05:46:10;;;;;;;14.07;3.40;;;12.60;99.90;;;-144.05;52.12;56838.22;5075346;28;20040;-82
2023/05/29 05:48:36;;;;;;;11.93;2.80;;;12.80;99.90;;;-144.05;52.84;56799.97;5073956;28;20044;-81
2023/05/29 05:51:02;;;;;;;14.20;2.67;;;12.80;99.90;;;-144.05;52.24;56842.47;5074959;28;20021;-80
2023/05/29 05:53:28;;;;;;;13.63;3.10;;;12.70;99.90;;;-144.05;51.74;56838.22;5075230;28;20075;-80
2023/05/29 05:55:54;;;;;;;15.05;4.00;;;12.90;99.90;;;-144.05;51.27;56825.47;5075125;28;20032;-80
2023/05/29 05:58:20;;;;;;;16.25;3.63;;;12.90;99.90;;;-144.05;50.92;56816.97;5074649;28;20043;-79
2023/05/29 06:00:46;;;;;;;17.77;3.70;;;13.00;99.90;;;-144.05;50.92;56840.34;5074330;28;20029;-81
2023/05/29 06:03:11;;;;;;;18.00;3.55;;;13.10;99.90;;;-144.05;50.41;56806.34;5074785;28;20151;-81
2023/05/29 06:05:40;;;;;;;18.48;4.00;;;13.30;99.90;;;-144.05;49.74;56806.34;5056872;28;20068;-80
2023/05/29 06:08:08;;;;;;;12.27;3.70;;;13.40;99.90;;;-144.05;50.33;56819.09;5082342;28;20035;-79
2023/05/29 06:10:34;;;;;;;12.25;3.80;;;13.30;99.90;;;-144.05;49.53;56804.22;5077250;28;20052;-80
2023/05/29 06:13:00;;;;;;;10.50;3.25;;;13.50;99.90;;;-144.05;49.42;56833.97;5075559;28;20081;-80
2023/05/29 06:15:26;;;;;;;13.35;3.70;;;13.50;99.90;;;-144.05;49.47;56816.97;5074897;28;20036;-77
2023/05/29 06:17:55;;;;;;;20.02;4.28;;;13.70;99.90;;;-144.05;49.05;56814.84;5073891;28;20037;-80
2023/05/29 06:20:21;;;;;;;20.25;3.72;;;13.80;99.90;;;-144.05;49.00;56823.34;5072392;28;20041;-79
2023/05/29 06:22:50;;;;;;;18.13;3.40;;;13.90;99.90;;;-144.05;48.03;56810.59;5072237;28;20035;-80
2023/05/29 06:25:20;;;;;;;16.45;5.00;;;14.10;99.90;;;-144.05;47.47;56806.34;5072213;28;20037;-79
2023/05/29 06:27:46;;;;;;;14.30;3.65;;;14.30;99.90;;;-144.05;46.96;56814.84;5072419;28;20036;-81
2023/05/29 06:30:13;;;;;;;11.95;3.17;;;14.40;99.90;;;-144.05;46.27;56804.22;5073097;28;20029;-80
2023/05/29 06:32:39;;;;;;;14.65;3.72;;;14.60;99.90;;;-144.05;46.59;56821.22;5072992;28;20028;-78
2023/05/29 06:35:06;;;;;;;17.80;4.25;;;14.60;99.90;;;-144.05;46.44;56806.34;5073342;28;20103;-79
2023/05/29 06:37:32;;;;;;;14.77;3.33;;;14.70;99.90;;;-144.05;46.23;56808.47;5071688;28;20024;-80
2023/05/29 06:39:58;;;;;;;13.80;3.65;;;14.80;99.90;;;-144.05;45.97;56816.97;5072923;28;20485;-79
2023/05/29 06:42:24;;;;;;;14.15;3.65;;;14.90;99.90;;;-144.05;46.11;56797.88;5072804;28;20032;-79
2023/05/29 06:44:50;;;;;;;12.15;3.35;;;14.90;99.90;;;-144.05;45.59;56795.75;5072832;28;20066;-79
2023/05/29 06:47:16;;;;;;;17.40;3.65;;;15.00;99.90;;;-144.05;45.73;56816.97;5072786;28;20028;-81
2023/05/29 06:49:42;;;;;;;14.27;3.28;;;15.10;99.90;;;-144.05;45.59;56816.97;5072574;28;20075;-80
2023/05/29 06:52:08;;;;;;;15.38;3.33;;;15.30;99.90;;;-144.05;45.73;56819.09;5072644;28;20107;-79
2023/05/29 06:54:33;;;;;;;13.93;3.42;;;15.30;99.90;;;-144.05;45.39;56810.59;5054641;28;20424;-79
2023/05/29 06:56:59;;;;;;;10.07;2.97;;;15.40;99.90;;;-144.05;44.23;56836.09;5072479;28;20518;-79
2023/05/29 06:59:25;;;;;;;11.05;3.30;;;15.50;99.90;;;-144.05;44.13;56810.59;5073792;28;20029;-79
2023/05/29 07:01:51;;;;;;;12.73;2.85;;;15.60;99.90;;;-144.05;43.88;56827.59;5073679;28;20025;-78
2023/05/29 07:04:17;;;;;;;15.85;3.45;;;15.90;99.90;;;-144.05;43.05;56829.72;5074275;28;20032;-78
2023/05/29 07:06:42;;;;;;;8.85;3.40;;;16.00;99.90;;;-144.05;43.62;56836.09;5071977;28;20063;-79
2023/05/29 07:09:08;;;;;;;11.70;3.88;;;16.10;99.90;;;-144.05;43.10;56850.97;5073091;28;20028;-79
2023/05/29 07:11:34;;;;;;;9.70;3.63;;;16.00;99.90;;;-144.05;42.89;56806.34;5074445;28;20028;-80
2023/05/29 07:14:00;;;;;;;15.98;3.45;;;16.00;99.90;;;-144.05;43.23;56808.47;5072892;28;20029;-77
2023/05/29 07:16:26;;;;;;;13.55;3.63;;;16.00;99.90;;;-144.05;43.62;56848.84;5073077;28;20112;-79
2023/05/29 07:18:52;;;;;;;14.27;3.83;;;15.80;99.90;;;-144.05;43.58;56838.22;5074857;28;20056;-79
2023/05/29 07:21:18;;;;;;;11.93;3.33;;;16.00;99.90;;;-144.05;43.86;56823.34;5072592;28;20035;-77
2023/05/29 07:23:45;;;;;;;13.13;3.35;;;16.10;99.90;;;-144.05;42.68;56827.59;5073070;28;20020;-78
2023/05/29 07:26:10;;;;;;;12.52;3.20;;;16.40;99.90;;;-144.05;41.58;56848.84;5074781;28;20039;-80
2023/05/29 07:28:36;;;;;;;14.70;3.67;;;16.90;99.90;;;-144.05;41.00;56812.72;5075797;28;20029;-80
2023/05/29 07:31:02;;;;;;;11.65;3.08;;;16.90;99.90;;;-144.05;41.71;56831.84;5074552;28;20504;-80
2023/05/29 07:33:28;;;;;;;10.70;3.08;;;16.90;99.90;;;-144.05;41.50;56833.97;5074348;28;20028;-79
2023/05/29 07:35:54;;;;;;;13.38;3.70;;;16.80;99.90;;;-144.05;41.83;56831.84;5074140;28;20107;-80
2023/05/29 07:38:21;;;;;;;13.18;3.97;;;16.90;99.90;;;-144.05;40.59;56840.34;5071929;28;20024;-78
2023/05/29 07:40:46;;;;;;;12.40;3.85;;;17.20;99.90;;;-144.05;40.66;56855.22;5071994;28;20028;-77
2023/05/29 07:43:12;;;;;;;11.02;3.40;;;17.40;99.90;;;-144.05;39.95;56831.84;5070520;28;20028;-80
2023/05/29 07:45:38;;;;;;;11.40;3.38;;;17.70;99.90;;;-144.05;39.39;56861.56;5054025;28;20375;-80
2023/05/29 07:48:04;;;;;;;9.93;3.30;;;17.90;99.90;;;-144.05;39.08;56846.72;5073324;28;20020;-80
2023/05/29 07:50:30;;;;;;;15.75;3.67;;;18.10;99.90;;;-144.05;38.30;56853.09;5073587;28;20032;-80
2023/05/29 07:52:57;;;;;;;12.85;3.65;;;18.20;99.90;;;-144.05;39.04;56833.97;5070952;28;20416;-80
2023/05/29 07:55:22;;;;;;;11.23;3.63;;;17.90;99.90;;;-144.05;38.88;56836.09;5074665;28;20028;-79
2023/05/29 07:57:48;;;;;;;13.25;3.80;;;17.80;99.90;;;-144.05;39.35;56825.47;5072377;28;20069;-80
2023/05/29 08:00:16;;;;;;;10.48;3.30;;;17.70;99.90;;;-144.05;38.80;56848.84;5071703;28;20111;-79
2023/05/29 08:02:42;;;;;;;13.30;3.60;;;18.10;99.90;;;-144.05;38.66;56844.59;5073713;28;20020;-79
2023/05/29 08:05:08;;;;;;;9.32;3.50;;;18.30;99.90;;;-144.05;38.02;56855.22;5074568;28;20028;-80
2023/05/29 08:07:36;;;;;;;11.48;3.92;;;18.50;99.90;;;-144.05;38.46;56842.47;5071363;28;20036;-80
2023/05/29 08:10:05;;;;;;;11.75;3.33;;;18.50;99.90;;;-144.05;38.31;56870.06;5074484;28;20032;-79
2023/05/29 08:12:31;;;;;;;11.50;2.80;;;18.50;99.90;;;-144.05;38.08;56878.56;5075095;28;20048;-80
2023/05/29 08:14:57;;;;;;;9.68;3.00;;;18.50;99.90;;;-144.05;38.11;56848.84;5075609;28;20025;-80
2023/05/29 08:17:22;;;;;;;12.10;3.55;;;18.50;99.90;;;-144.05;38.88;56867.94;5074915;28;20052;-79
2023/05/29 08:19:48;;;;;;;12.48;3.45;;;18.50;99.90;;;-144.05;38.03;56853.09;5072819;28;20063;-80
2023/05/29 08:22:15;;;;;;;11.05;3.28;;;18.50;99.90;;;-144.05;38.77;56842.47;5072058;28;20401;-80
2023/05/29 08:24:41;;;;;;;12.18;3.17;;;18.30;99.90;;;-144.05;39.28;56846.72;5070042;28;20127;-80
2023/05/29 08:27:06;;;;;;;13.63;3.67;;;17.90;99.90;;;-144.05;39.70;56865.81;5071387;28;20074;-78
2023/05/29 08:29:32;;;;;;;9.38;3.55;;;18.00;99.90;;;-144.05;39.14;56836.09;5069995;28;20485;-81
2023/05/29 08:31:58;;;;;;;11.43;3.45;;;17.90;99.90;;;-144.05;39.22;56846.72;5083030;28;20028;-78
2023/05/29 08:34:24;;;;;;;8.77;2.80;;;18.10;99.90;;;-144.05;38.31;56857.34;5053929;28;20020;-80
2023/05/29 08:36:51;;;;;;;12.07;3.53;;;18.40;99.90;;;-144.05;38.27;56867.94;5071446;28;20547;-80
2023/05/29 08:39:17;;;;;;;10.77;3.15;;;18.60;99.90;;;-144.05;37.41;56857.34;5071382;28;20055;-80
2023/05/29 08:42:07;;;;;;;8.07;3.03;;;18.90;99.90;;;-144.05;37.46;56857.34;5071329;28;20074;-78
2023/05/29 08:44:35;;;;;;;8.02;3.15;;;19.00;99.90;;;-144.05;36.84;56865.81;5072597;28;20394;-82
2023/05/29 08:47:09;;;;;;;9.80;3.42;;;19.20;99.90;;;-144.05;36.80;56855.22;5071714;28;20379;-78
2023/05/29 08:49:45;;;;;;;11.15;3.47;;;19.50;99.90;;;-144.05;36.52;56863.69;5072572;28;20025;-79
2023/05/29 08:52:23;;;;;;;;;;;19.50;99.90;;;-144.05;36.30;56870.06;5075011;28;20039;-78
2023/05/29 08:54:49;;;;;;;13.07;3.40;;;19.90;99.90;;;-144.05;35.41;56908.31;5057253;28;20365;-80
2023/05/29 08:57:15;;;;;;;10.25;2.90;;;20.00;99.90;;;-144.05;35.17;56861.56;5075206;28;20458;-79
2023/05/29 08:59:49;;;;;;;9.65;2.78;;;19.80;99.90;;;-144.05;36.05;56865.81;5075281;28;20028;-82
2023/05/29 09:02:15;;;;;;;8.82;2.80;;;19.70;99.90;;;-144.05;35.96;56887.06;5073759;28;20032;-81
2023/05/29 09:04:48;;;;;;;11.73;2.80;;;19.70;99.90;;;-144.05;35.64;56850.97;5074955;28;20017;-81
2023/05/29 09:07:18;;;;;;;7.93;2.70;;;19.80;99.90;;;-144.05;35.81;56853.09;5074892;28;20413;-80
2023/05/29 09:09:46;;;;;;;16.30;3.58;;;19.60;99.90;;;-144.05;35.61;56861.56;5076086;28;20028;-79
2023/05/29 09:12:12;;;;;;;10.13;3.00;;;19.60;99.90;;;-144.05;36.14;56870.06;5075401;28;20396;-79
2023/05/29 09:14:45;;;;;;;11.13;3.17;;;19.60;99.90;;;-144.05;35.59;56876.44;5075767;28;20039;-80
2023/05/29 09:17:13;;;;;;;11.55;3.33;;;19.80;99.90;;;-144.05;35.10;56878.56;5073510;28;20111;-79
2023/05/29 09:19:42;;;;;;;11.63;2.90;;;20.00;99.90;;;-144.05;34.51;56874.31;5073529;28;20028;-79
2023/05/29 09:22:14;;;;;;;8.75;2.70;;;20.00;99.90;;;-144.05;34.81;56899.81;5056820;28;20028;-82
2023/05/29 09:24:48;;;;;;;12.68;3.03;;;20.10;99.90;;;-144.05;34.12;56880.69;5076214;28;20033;-83
2023/05/29 09:27:15;;;;;;;9.80;2.60;;;20.20;99.30;;;-144.05;34.60;56897.69;5076572;28;20031;-82
2023/05/29 09:29:45;;;;;;;7.68;2.60;;;20.10;99.50;;;-144.05;34.75;56863.69;5074916;28;20078;-79
2023/05/29 09:32:18;;;;;;;11.20;3.15;;;20.30;99.70;;;-144.05;34.07;56889.19;5075041;28;20035;-81
2023/05/29 09:34:45;;;;;;;8.13;2.88;;;20.60;99.40;;;-144.05;33.08;56891.31;5073718;28;20024;-79
2023/05/29 09:37:13;;;;;;;12.25;3.17;;;20.70;96.40;;;-144.05;34.15;56893.44;5074542;28;20052;-81
2023/05/29 09:39:48;;;;;;;13.60;3.30;;;20.60;97.70;;;-144.05;33.74;56918.94;5074307;28;20024;-79
2023/05/29 09:42:18;;;;;;;9.80;3.15;;;20.70;97.40;;;-144.05;34.74;56882.81;5074622;28;20024;-78
2023/05/29 09:44:53;;;;;;;8.25;2.70;;;20.60;98.30;;;-144.05;33.82;56912.56;5074583;28;20067;-81
2023/05/29 09:47:21;;;;;;;7.95;2.80;;;20.60;97.30;;;-144.05;33.58;56901.94;5056371;28;20029;-79
2023/05/29 09:49:47;;;;;;;13.45;3.05;;;20.70;96.60;;;-144.05;32.73;56891.31;5074137;28;20039;-81
2023/05/29 09:52:20;;;;;;;11.13;2.80;;;21.00;95.50;;;-144.05;33.27;56891.31;5073994;28;20442;-78
2023/05/29 09:54:46;;;;;;;9.07;2.60;;;21.00;96.30;;;-144.05;33.21;56876.44;5074127;28;20539;-81
2023/05/29 09:57:17;;;;;;;7.85;3.00;;;21.10;95.20;;;-144.05;33.46;56878.56;5073284;28;20116;-81
2023/05/29 09:59:46;;;;;;;10.73;2.90;;;20.90;95.50;;;-144.05;33.83;56906.19;5074261;28;20112;-78
2023/05/29 10:02:15;;;;;;;11.93;2.70;;;20.60;96.00;;;-144.05;34.00;56889.19;5055104;28;20032;-78
2023/05/29 10:04:41;;;;;;;8.00;2.50;;;20.70;97.10;;;-144.05;33.60;56878.56;5074021;28;20024;-79